sensor_id;sensor_type;location;lat;lon;timestamp;pressure;altitude;pressure_sealevel;temperature;humidity
53635;BME280;39542;-34.932;138.594;2023-06-05T00:00:00;100876.87;;;18.64;60.42
53635;BME280;39542;-34.932;138.594;2023-06-05T00:00:34;100879.55;;;18.65;60.40
53635;BME280;39542;-34.932;138.594;2023-06-05T00:01:08;100877.93;;;18.65;60.41
53635;BME280;39542;-34.932;138.594;2023-06-05T00:01:43;100878.71;;;18.66;60.41
53635;BME280;39542;-34.932;138.594;2023-06-05T00:02:17;100883.13;;;18.66;60.39
53635;BME280;39542;-34.932;138.594;2023-06-05T00:02:51;100879.71;;;18.65;60.40
53635;BME280;39542;-34.932;138.594;2023-06-05T00:03:25;100881.34;;;18.65;60.42
53635;BME280;39542;-34.932;138.594;2023-06-05T00:04:00;100880.09;;;18.64;60.46
53635;BME280;39542;-34.932;138.594;2023-06-05T00:04:34;100884.28;;;18.65;60.39
53635;BME280;39542;-34.932;138.594;2023-06-05T00:05:08;100878.51;;;18.65;60.47
53635;BME280;39542;-34.932;138.594;2023-06-05T00:05:43;100877.71;;;18.63;60.46
53635;BME280;39542;-34.932;138.594;2023-06-05T00:06:17;100880.92;;;18.64;60.49
53635;BME280;39542;-34.932;138.594;2023-06-05T00:06:51;100882.11;;;18.65;60.45
53635;BME280;39542;-34.932;138.594;2023-06-05T00:07:26;100879.77;;;18.64;60.47
53635;BME280;39542;-34.932;138.594;2023-06-05T00:08:00;100882.47;;;18.63;60.53
53635;BME280;39542;-34.932;138.594;2023-06-05T00:08:34;100883.01;;;18.62;60.56
53635;BME280;39542;-34.932;138.594;2023-06-05T00:09:09;100884.28;;;18.61;60.52
53635;BME280;39542;-34.932;138.594;2023-06-05T00:09:43;100881.59;;;18.61;60.44
53635;BME280;39542;-34.932;138.594;2023-06-05T00:10:17;100882.58;;;18.62;60.51
53635;BME280;39542;-34.932;138.594;2023-06-05T00:10:51;100879.96;;;18.64;60.48
53635;BME280;39542;-34.932;138.594;2023-06-05T00:11:26;100882.73;;;18.64;60.51
53635;BME280;39542;-34.932;138.594;2023-06-05T00:12:00;100879.16;;;18.64;60.48
53635;BME280;39542;-34.932;138.594;2023-06-05T00:12:34;100880.22;;;18.63;60.48
53635;BME280;39542;-34.932;138.594;2023-06-05T00:13:09;100879.57;;;18.63;60.53
53635;BME280;39542;-34.932;138.594;2023-06-05T00:13:42;100880.71;;;18.63;60.53
53635;BME280;39542;-34.932;138.594;2023-06-05T00:14:17;100880.06;;;18.62;60.56
53635;BME280;39542;-34.932;138.594;2023-06-05T00:14:51;100880.30;;;18.63;60.48
53635;BME280;39542;-34.932;138.594;2023-06-05T00:15:26;100878.22;;;18.62;60.48
53635;BME280;39542;-34.932;138.594;2023-06-05T00:16:00;100879.14;;;18.62;60.62
53635;BME280;39542;-34.932;138.594;2023-06-05T00:16:34;100881.99;;;18.62;60.68
53635;BME280;39542;-34.932;138.594;2023-06-05T00:17:08;100882.20;;;18.61;60.60
53635;BME280;39542;-34.932;138.594;2023-06-05T00:17:42;100884.03;;;18.62;60.54
53635;BME280;39542;-34.932;138.594;2023-06-05T00:18:16;100883.02;;;18.61;60.71
53635;BME280;39542;-34.932;138.594;2023-06-05T00:18:50;100878.05;;;18.61;60.65
53635;BME280;39542;-34.932;138.594;2023-06-05T00:19:24;100881.42;;;18.59;60.75
53635;BME280;39542;-34.932;138.594;2023-06-05T00:19:59;100880.42;;;18.61;60.60
53635;BME280;39542;-34.932;138.594;2023-06-05T00:20:33;100882.83;;;18.61;60.61
53635;BME280;39542;-34.932;138.594;2023-06-05T00:21:07;100885.01;;;18.61;60.72
53635;BME280;39542;-34.932;138.594;2023-06-05T00:21:42;100883.84;;;18.62;60.67
53635;BME280;39542;-34.932;138.594;2023-06-05T00:22:16;100883.94;;;18.62;60.64
53635;BME280;39542;-34.932;138.594;2023-06-05T00:22:50;100879.45;;;18.62;60.61
53635;BME280;39542;-34.932;138.594;2023-06-05T00:23:24;100878.83;;;18.61;60.68
53635;BME280;39542;-34.932;138.594;2023-06-05T00:23:59;100876.75;;;18.61;60.69
53635;BME280;39542;-34.932;138.594;2023-06-05T00:24:33;100878.88;;;18.61;60.63
53635;BME280;39542;-34.932;138.594;2023-06-05T00:25:08;100876.88;;;18.61;60.60
53635;BME280;39542;-34.932;138.594;2023-06-05T00:25:42;100879.35;;;18.62;60.63
53635;BME280;39542;-34.932;138.594;2023-06-05T00:26:17;100877.68;;;18.62;60.61
53635;BME280;39542;-34.932;138.594;2023-06-05T00:26:51;100873.61;;;18.62;60.67
53635;BME280;39542;-34.932;138.594;2023-06-05T00:27:27;100878.45;;;18.64;60.58
53635;BME280;39542;-34.932;138.594;2023-06-05T00:28:01;100872.89;;;18.62;60.72
53635;BME280;39542;-34.932;138.594;2023-06-05T00:28:35;100874.32;;;18.62;60.67
53635;BME280;39542;-34.932;138.594;2023-06-05T00:29:10;100874.65;;;18.61;60.70
53635;BME280;39542;-34.932;138.594;2023-06-05T00:29:44;100876.26;;;18.62;60.65
53635;BME280;39542;-34.932;138.594;2023-06-05T00:30:18;100875.73;;;18.63;60.71
53635;BME280;39542;-34.932;138.594;2023-06-05T00:30:52;100875.51;;;18.63;60.73
53635;BME280;39542;-34.932;138.594;2023-06-05T00:31:27;100875.53;;;18.63;60.73
53635;BME280;39542;-34.932;138.594;2023-06-05T00:32:01;100875.72;;;18.62;60.76
53635;BME280;39542;-34.932;138.594;2023-06-05T00:32:35;100878.80;;;18.62;60.76
53635;BME280;39542;-34.932;138.594;2023-06-05T00:33:09;100877.23;;;18.64;60.76
53635;BME280;39542;-34.932;138.594;2023-06-05T00:33:44;100877.19;;;18.64;60.80
53635;BME280;39542;-34.932;138.594;2023-06-05T00:34:17;100878.63;;;18.64;60.83
53635;BME280;39542;-34.932;138.594;2023-06-05T00:34:51;100875.77;;;18.65;60.80
53635;BME280;39542;-34.932;138.594;2023-06-05T00:35:25;100878.65;;;18.65;60.83
53635;BME280;39542;-34.932;138.594;2023-06-05T00:36:00;100872.92;;;18.65;60.79
53635;BME280;39542;-34.932;138.594;2023-06-05T00:36:34;100875.29;;;18.65;60.79
53635;BME280;39542;-34.932;138.594;2023-06-05T00:37:08;100873.94;;;18.65;60.80
53635;BME280;39542;-34.932;138.594;2023-06-05T00:37:43;100871.55;;;18.65;60.83
53635;BME280;39542;-34.932;138.594;2023-06-05T00:38:17;100875.09;;;18.65;60.85
53635;BME280;39542;-34.932;138.594;2023-06-05T00:38:51;100871.76;;;18.65;60.84
53635;BME280;39542;-34.932;138.594;2023-06-05T00:39:26;100869.51;;;18.65;60.86
53635;BME280;39542;-34.932;138.594;2023-06-05T00:40:00;100868.97;;;18.63;60.91
53635;BME280;39542;-34.932;138.594;2023-06-05T00:40:34;100870.26;;;18.65;60.93
53635;BME280;39542;-34.932;138.594;2023-06-05T00:41:08;100870.01;;;18.65;60.95
53635;BME280;39542;-34.932;138.594;2023-06-05T00:41:42;100865.78;;;18.65;60.96
53635;BME280;39542;-34.932;138.594;2023-06-05T00:42:16;100867.43;;;18.65;60.91
53635;BME280;39542;-34.932;138.594;2023-06-05T00:42:51;100865.08;;;18.65;60.90
53635;BME280;39542;-34.932;138.594;2023-06-05T00:43:25;100864.63;;;18.65;60.99
53635;BME280;39542;-34.932;138.594;2023-06-05T00:44:00;100864.36;;;18.64;60.93
53635;BME280;39542;-34.932;138.594;2023-06-05T00:44:35;100866.01;;;18.64;61.02
53635;BME280;39542;-34.932;138.594;2023-06-05T00:45:09;100862.40;;;18.64;61.03
53635;BME280;39542;-34.932;138.594;2023-06-05T00:45:44;100861.68;;;18.64;61.05
53635;BME280;39542;-34.932;138.594;2023-06-05T00:46:18;100863.02;;;18.65;60.99
53635;BME280;39542;-34.932;138.594;2023-06-05T00:46:53;100862.07;;;18.64;61.00
53635;BME280;39542;-34.932;138.594;2023-06-05T00:47:28;100861.02;;;18.65;60.95
53635;BME280;39542;-34.932;138.594;2023-06-05T00:48:04;100857.18;;;18.64;61.02
53635;BME280;39542;-34.932;138.594;2023-06-05T00:48:39;100850.52;;;18.65;61.00
53635;BME280;39542;-34.932;138.594;2023-06-05T00:49:14;100851.21;;;18.65;61.01
53635;BME280;39542;-34.932;138.594;2023-06-05T00:49:49;100850.36;;;18.64;61.00
53635;BME280;39542;-34.932;138.594;2023-06-05T00:50:23;100849.29;;;18.65;61.04
53635;BME280;39542;-34.932;138.594;2023-06-05T00:50:59;100849.85;;;18.66;61.00
53635;BME280;39542;-34.932;138.594;2023-06-05T00:51:33;100849.92;;;18.65;60.99
53635;BME280;39542;-34.932;138.594;2023-06-05T00:52:08;100845.20;;;18.65;60.96
53635;BME280;39542;-34.932;138.594;2023-06-05T00:52:42;100848.42;;;18.66;61.03
53635;BME280;39542;-34.932;138.594;2023-06-05T00:53:17;100849.47;;;18.66;61.07
53635;BME280;39542;-34.932;138.594;2023-06-05T00:53:51;100850.76;;;18.65;61.08
53635;BME280;39542;-34.932;138.594;2023-06-05T00:54:26;100851.28;;;18.65;61.09
53635;BME280;39542;-34.932;138.594;2023-06-05T00:55:01;100848.75;;;18.65;61.16
53635;BME280;39542;-34.932;138.594;2023-06-05T00:55:36;100849.03;;;18.65;61.10
53635;BME280;39542;-34.932;138.594;2023-06-05T00:56:11;100848.15;;;18.65;61.16
53635;BME280;39542;-34.932;138.594;2023-06-05T00:56:46;100845.99;;;18.65;61.20
53635;BME280;39542;-34.932;138.594;2023-06-05T00:57:21;100844.97;;;18.66;61.17
53635;BME280;39542;-34.932;138.594;2023-06-05T00:57:56;100844.30;;;18.66;61.15
53635;BME280;39542;-34.932;138.594;2023-06-05T00:58:31;100842.13;;;18.66;61.16
53635;BME280;39542;-34.932;138.594;2023-06-05T00:59:05;100845.47;;;18.65;61.16
53635;BME280;39542;-34.932;138.594;2023-06-05T00:59:39;100845.58;;;18.65;61.25
53635;BME280;39542;-34.932;138.594;2023-06-05T01:00:14;100848.70;;;18.64;61.33
53635;BME280;39542;-34.932;138.594;2023-06-05T01:00:48;100843.17;;;18.63;61.20
53635;BME280;39542;-34.932;138.594;2023-06-05T01:01:23;100842.16;;;18.64;61.28
53635;BME280;39542;-34.932;138.594;2023-06-05T01:01:57;100844.91;;;18.65;61.21
53635;BME280;39542;-34.932;138.594;2023-06-05T01:02:32;100839.63;;;18.66;61.26
53635;BME280;39542;-34.932;138.594;2023-06-05T01:03:06;100840.55;;;18.64;61.26
53635;BME280;39542;-34.932;138.594;2023-06-05T01:03:40;100840.30;;;18.62;61.32
53635;BME280;39542;-34.932;138.594;2023-06-05T01:04:15;100837.21;;;18.63;61.33
53635;BME280;39542;-34.932;138.594;2023-06-05T01:04:49;100837.35;;;18.63;61.41
53635;BME280;39542;-34.932;138.594;2023-06-05T01:05:24;100837.64;;;18.63;61.36
53635;BME280;39542;-34.932;138.594;2023-06-05T01:05:58;100837.22;;;18.63;61.36
53635;BME280;39542;-34.932;138.594;2023-06-05T01:06:33;100832.51;;;18.64;61.32
53635;BME280;39542;-34.932;138.594;2023-06-05T01:07:07;100830.84;;;18.65;61.34
53635;BME280;39542;-34.932;138.594;2023-06-05T01:07:42;100832.45;;;18.66;61.33
53635;BME280;39542;-34.932;138.594;2023-06-05T01:08:16;100829.68;;;18.66;61.33
53635;BME280;39542;-34.932;138.594;2023-06-05T01:08:50;100830.34;;;18.67;61.40
53635;BME280;39542;-34.932;138.594;2023-06-05T01:09:25;100825.43;;;18.66;61.41
53635;BME280;39542;-34.932;138.594;2023-06-05T01:09:59;100825.69;;;18.65;61.44
53635;BME280;39542;-34.932;138.594;2023-06-05T01:10:34;100822.52;;;18.64;61.49
53635;BME280;39542;-34.932;138.594;2023-06-05T01:11:16;100823.52;;;18.65;61.49
53635;BME280;39542;-34.932;138.594;2023-06-05T01:11:58;100820.40;;;18.65;61.53
53635;BME280;39542;-34.932;138.594;2023-06-05T01:12:42;100819.13;;;18.64;61.53
53635;BME280;39542;-34.932;138.594;2023-06-05T01:13:23;100815.31;;;18.65;61.53
53635;BME280;39542;-34.932;138.594;2023-06-05T01:14:06;100810.59;;;18.65;61.59
53635;BME280;39542;-34.932;138.594;2023-06-05T01:14:43;100813.64;;;18.65;61.47
53635;BME280;39542;-34.932;138.594;2023-06-05T01:15:19;100817.16;;;18.64;61.53
53635;BME280;39542;-34.932;138.594;2023-06-05T01:15:54;100808.59;;;18.64;61.55
53635;BME280;39542;-34.932;138.594;2023-06-05T01:16:29;100815.13;;;18.64;61.67
53635;BME280;39542;-34.932;138.594;2023-06-05T01:17:04;100815.12;;;18.66;61.55
53635;BME280;39542;-34.932;138.594;2023-06-05T01:17:42;100808.96;;;18.67;61.57
53635;BME280;39542;-34.932;138.594;2023-06-05T01:18:17;100808.31;;;18.66;61.52
53635;BME280;39542;-34.932;138.594;2023-06-05T01:18:51;100809.30;;;18.67;61.64
53635;BME280;39542;-34.932;138.594;2023-06-05T01:19:26;100808.05;;;18.68;61.55
53635;BME280;39542;-34.932;138.594;2023-06-05T01:20:01;100808.16;;;18.66;61.59
53635;BME280;39542;-34.932;138.594;2023-06-05T01:20:37;100803.25;;;18.64;61.65
53635;BME280;39542;-34.932;138.594;2023-06-05T01:21:13;100797.87;;;18.65;61.58
53635;BME280;39542;-34.932;138.594;2023-06-05T01:21:47;100798.41;;;18.66;61.69
53635;BME280;39542;-34.932;138.594;2023-06-05T01:22:22;100798.20;;;18.66;61.61
53635;BME280;39542;-34.932;138.594;2023-06-05T01:22:56;100800.05;;;18.66;61.66
53635;BME280;39542;-34.932;138.594;2023-06-05T01:23:30;100798.54;;;18.65;61.65
53635;BME280;39542;-34.932;138.594;2023-06-05T01:24:04;100795.97;;;18.65;61.61
53635;BME280;39542;-34.932;138.594;2023-06-05T01:24:39;100793.21;;;18.65;61.63
53635;BME280;39542;-34.932;138.594;2023-06-05T01:25:13;100789.59;;;18.64;61.67
53635;BME280;39542;-34.932;138.594;2023-06-05T01:25:47;100787.22;;;18.65;61.69
53635;BME280;39542;-34.932;138.594;2023-06-05T01:26:28;100785.81;;;18.66;61.62
53635;BME280;39542;-34.932;138.594;2023-06-05T01:27:11;100779.10;;;18.66;61.69
53635;BME280;39542;-34.932;138.594;2023-06-05T01:27:52;100779.32;;;18.65;61.66
53635;BME280;39542;-34.932;138.594;2023-06-05T01:28:30;100779.54;;;18.67;61.75
53635;BME280;39542;-34.932;138.594;2023-06-05T01:29:07;100776.31;;;18.66;61.73
53635;BME280;39542;-34.932;138.594;2023-06-05T01:29:49;100772.16;;;18.66;61.66
53635;BME280;39542;-34.932;138.594;2023-06-05T01:30:30;100771.46;;;18.66;61.64
53635;BME280;39542;-34.932;138.594;2023-06-05T01:31:11;100774.03;;;18.65;61.69
53635;BME280;39542;-34.932;138.594;2023-06-05T01:31:47;100771.53;;;18.65;61.70
53635;BME280;39542;-34.932;138.594;2023-06-05T01:32:27;100769.61;;;18.66;61.71
53635;BME280;39542;-34.932;138.594;2023-06-05T01:33:06;100769.31;;;18.66;61.74
53635;BME280;39542;-34.932;138.594;2023-06-05T01:33:45;100766.00;;;18.65;61.67
53635;BME280;39542;-34.932;138.594;2023-06-05T01:34:21;100763.53;;;18.65;61.72
53635;BME280;39542;-34.932;138.594;2023-06-05T01:34:55;100763.98;;;18.66;61.78
53635;BME280;39542;-34.932;138.594;2023-06-05T01:35:32;100760.21;;;18.65;61.72
53635;BME280;39542;-34.932;138.594;2023-06-05T01:36:07;100757.22;;;18.65;61.73
53635;BME280;39542;-34.932;138.594;2023-06-05T01:36:42;100754.94;;;18.66;61.70
53635;BME280;39542;-34.932;138.594;2023-06-05T01:37:17;100753.68;;;18.66;61.73
53635;BME280;39542;-34.932;138.594;2023-06-05T01:37:52;100751.57;;;18.67;61.74
53635;BME280;39542;-34.932;138.594;2023-06-05T01:38:27;100749.51;;;18.67;61.73
53635;BME280;39542;-34.932;138.594;2023-06-05T01:39:02;100747.25;;;18.68;61.68
53635;BME280;39542;-34.932;138.594;2023-06-05T01:39:38;100746.81;;;18.68;61.71
53635;BME280;39542;-34.932;138.594;2023-06-05T01:40:15;100744.92;;;18.67;61.78
53635;BME280;39542;-34.932;138.594;2023-06-05T01:40:51;100745.41;;;18.67;61.71
53635;BME280;39542;-34.932;138.594;2023-06-05T01:41:28;100745.60;;;18.68;61.74
53635;BME280;39542;-34.932;138.594;2023-06-05T01:42:02;100743.65;;;18.68;61.71
53635;BME280;39542;-34.932;138.594;2023-06-05T01:42:38;100746.62;;;18.65;61.75
53635;BME280;39542;-34.932;138.594;2023-06-05T01:43:12;100745.74;;;18.67;61.74
53635;BME280;39542;-34.932;138.594;2023-06-05T01:43:48;100745.04;;;18.66;61.74
53635;BME280;39542;-34.932;138.594;2023-06-05T01:44:23;100742.67;;;18.66;61.75
53635;BME280;39542;-34.932;138.594;2023-06-05T01:44:58;100744.32;;;18.67;61.73
53635;BME280;39542;-34.932;138.594;2023-06-05T01:45:33;100743.73;;;18.66;61.73
53635;BME280;39542;-34.932;138.594;2023-06-05T01:46:10;100745.54;;;18.67;61.70
53635;BME280;39542;-34.932;138.594;2023-06-05T01:46:45;100743.38;;;18.66;61.72
53635;BME280;39542;-34.932;138.594;2023-06-05T01:47:20;100746.24;;;18.65;61.74
53635;BME280;39542;-34.932;138.594;2023-06-05T01:47:55;100746.00;;;18.66;61.77
53635;BME280;39542;-34.932;138.594;2023-06-05T01:48:30;100744.83;;;18.66;61.70
53635;BME280;39542;-34.932;138.594;2023-06-05T01:49:04;100747.38;;;18.67;61.71
53635;BME280;39542;-34.932;138.594;2023-06-05T01:49:39;100745.87;;;18.69;61.71
53635;BME280;39542;-34.932;138.594;2023-06-05T01:50:13;100745.70;;;18.66;61.79
53635;BME280;39542;-34.932;138.594;2023-06-05T01:50:47;100748.50;;;18.66;61.74
53635;BME280;39542;-34.932;138.594;2023-06-05T01:51:22;100744.45;;;18.67;61.74
53635;BME280;39542;-34.932;138.594;2023-06-05T01:51:56;100743.44;;;18.66;61.79
53635;BME280;39542;-34.932;138.594;2023-06-05T01:52:30;100744.88;;;18.66;61.81
53635;BME280;39542;-34.932;138.594;2023-06-05T01:53:05;100746.82;;;18.65;61.77
53635;BME280;39542;-34.932;138.594;2023-06-05T01:53:39;100744.61;;;18.64;61.84
53635;BME280;39542;-34.932;138.594;2023-06-05T01:54:14;100748.96;;;18.64;61.78
53635;BME280;39542;-34.932;138.594;2023-06-05T01:54:48;100746.53;;;18.65;61.85
53635;BME280;39542;-34.932;138.594;2023-06-05T01:55:24;100748.21;;;18.66;61.72
53635;BME280;39542;-34.932;138.594;2023-06-05T01:55:59;100752.08;;;18.67;61.73
53635;BME280;39542;-34.932;138.594;2023-06-05T01:56:33;100751.60;;;18.66;61.87
53635;BME280;39542;-34.932;138.594;2023-06-05T01:57:07;100751.36;;;18.67;61.71
53635;BME280;39542;-34.932;138.594;2023-06-05T01:57:41;100752.47;;;18.68;61.74
53635;BME280;39542;-34.932;138.594;2023-06-05T01:58:15;100753.48;;;18.65;61.84
53635;BME280;39542;-34.932;138.594;2023-06-05T01:58:49;100754.40;;;18.64;61.84
53635;BME280;39542;-34.932;138.594;2023-06-05T01:59:24;100755.93;;;18.65;61.77
53635;BME280;39542;-34.932;138.594;2023-06-05T01:59:58;100758.11;;;18.64;61.83
53635;BME280;39542;-34.932;138.594;2023-06-05T02:00:33;100757.91;;;18.64;61.85
53635;BME280;39542;-34.932;138.594;2023-06-05T02:01:07;100761.83;;;18.65;61.83
53635;BME280;39542;-34.932;138.594;2023-06-05T02:01:41;100756.80;;;18.66;61.78
53635;BME280;39542;-34.932;138.594;2023-06-05T02:02:15;100752.04;;;18.66;61.78
53635;BME280;39542;-34.932;138.594;2023-06-05T02:02:50;100749.27;;;18.67;61.80
53635;BME280;39542;-34.932;138.594;2023-06-05T02:03:25;100750.85;;;18.66;61.89
53635;BME280;39542;-34.932;138.594;2023-06-05T02:03:59;100750.91;;;18.66;61.78
53635;BME280;39542;-34.932;138.594;2023-06-05T02:04:33;100750.43;;;18.66;61.86
53635;BME280;39542;-34.932;138.594;2023-06-05T02:05:08;100750.35;;;18.66;61.89
53635;BME280;39542;-34.932;138.594;2023-06-05T02:05:42;100752.69;;;18.65;61.90
53635;BME280;39542;-34.932;138.594;2023-06-05T02:06:16;100750.64;;;18.65;61.90
53635;BME280;39542;-34.932;138.594;2023-06-05T02:06:51;100751.78;;;18.65;61.90
53635;BME280;39542;-34.932;138.594;2023-06-05T02:07:25;100745.71;;;18.66;61.86
53635;BME280;39542;-34.932;138.594;2023-06-05T02:08:00;100745.77;;;18.65;61.92
53635;BME280;39542;-34.932;138.594;2023-06-05T02:08:35;100746.15;;;18.65;61.96
53635;BME280;39542;-34.932;138.594;2023-06-05T02:09:10;100748.33;;;18.65;61.90
53635;BME280;39542;-34.932;138.594;2023-06-05T02:09:44;100745.64;;;18.66;61.96
53635;BME280;39542;-34.932;138.594;2023-06-05T02:10:19;100744.05;;;18.65;62.00
53635;BME280;39542;-34.932;138.594;2023-06-05T02:10:53;100740.35;;;18.64;61.98
53635;BME280;39542;-34.932;138.594;2023-06-05T02:11:28;100741.05;;;18.64;61.94
53635;BME280;39542;-34.932;138.594;2023-06-05T02:12:02;100737.44;;;18.66;61.98
53635;BME280;39542;-34.932;138.594;2023-06-05T02:12:37;100739.92;;;18.66;61.98
53635;BME280;39542;-34.932;138.594;2023-06-05T02:13:11;100734.87;;;18.67;61.99
53635;BME280;39542;-34.932;138.594;2023-06-05T02:13:45;100739.76;;;18.66;61.92
53635;BME280;39542;-34.932;138.594;2023-06-05T02:14:19;100736.51;;;18.65;61.95
53635;BME280;39542;-34.932;138.594;2023-06-05T02:14:54;100736.43;;;18.65;62.02
53635;BME280;39542;-34.932;138.594;2023-06-05T02:15:28;100736.09;;;18.64;61.98
53635;BME280;39542;-34.932;138.594;2023-06-05T02:16:02;100735.99;;;18.66;62.01
53635;BME280;39542;-34.932;138.594;2023-06-05T02:16:36;100738.81;;;18.68;61.90
53635;BME280;39542;-34.932;138.594;2023-06-05T02:17:10;100735.81;;;18.68;62.06
53635;BME280;39542;-34.932;138.594;2023-06-05T02:17:45;100735.14;;;18.67;62.04
53635;BME280;39542;-34.932;138.594;2023-06-05T02:18:19;100737.38;;;18.67;62.05
53635;BME280;39542;-34.932;138.594;2023-06-05T02:18:53;100735.60;;;18.67;61.98
53635;BME280;39542;-34.932;138.594;2023-06-05T02:19:28;100730.90;;;18.69;61.93
53635;BME280;39542;-34.932;138.594;2023-06-05T02:20:02;100728.19;;;18.66;61.99
53635;BME280;39542;-34.932;138.594;2023-06-05T02:20:36;100726.52;;;18.65;62.10
53635;BME280;39542;-34.932;138.594;2023-06-05T02:21:10;100725.99;;;18.66;62.00
53635;BME280;39542;-34.932;138.594;2023-06-05T02:21:45;100726.08;;;18.65;62.03
53635;BME280;39542;-34.932;138.594;2023-06-05T02:22:19;100721.29;;;18.68;62.01
53635;BME280;39542;-34.932;138.594;2023-06-05T02:22:53;100720.62;;;18.69;62.00
53635;BME280;39542;-34.932;138.594;2023-06-05T02:23:28;100722.11;;;18.69;62.01
53635;BME280;39542;-34.932;138.594;2023-06-05T02:24:02;100720.90;;;18.67;62.01
53635;BME280;39542;-34.932;138.594;2023-06-05T02:24:36;100720.06;;;18.68;61.99
53635;BME280;39542;-34.932;138.594;2023-06-05T02:25:11;100720.67;;;18.68;62.16
53635;BME280;39542;-34.932;138.594;2023-06-05T02:25:45;100720.58;;;18.66;62.01
53635;BME280;39542;-34.932;138.594;2023-06-05T02:26:20;100719.62;;;18.68;61.98
53635;BME280;39542;-34.932;138.594;2023-06-05T02:26:54;100720.36;;;18.67;62.18
53635;BME280;39542;-34.932;138.594;2023-06-05T02:27:29;100720.92;;;18.66;62.09
53635;BME280;39542;-34.932;138.594;2023-06-05T02:28:03;100721.57;;;18.68;61.99
53635;BME280;39542;-34.932;138.594;2023-06-05T02:28:37;100718.75;;;18.69;62.02
53635;BME280;39542;-34.932;138.594;2023-06-05T02:29:11;100718.32;;;18.67;62.05
53635;BME280;39542;-34.932;138.594;2023-06-05T02:29:45;100718.74;;;18.67;62.03
53635;BME280;39542;-34.932;138.594;2023-06-05T02:30:19;100719.41;;;18.67;62.00
53635;BME280;39542;-34.932;138.594;2023-06-05T02:30:54;100719.57;;;18.68;62.22
53635;BME280;39542;-34.932;138.594;2023-06-05T02:31:28;100717.67;;;18.66;62.20
53635;BME280;39542;-34.932;138.594;2023-06-05T02:32:02;100717.35;;;18.66;62.17
53635;BME280;39542;-34.932;138.594;2023-06-05T02:32:36;100716.35;;;18.68;62.18
53635;BME280;39542;-34.932;138.594;2023-06-05T02:33:11;100712.67;;;18.68;62.00
53635;BME280;39542;-34.932;138.594;2023-06-05T02:33:45;100712.26;;;18.68;61.94
53635;BME280;39542;-34.932;138.594;2023-06-05T02:34:19;100707.00;;;18.66;62.09
53635;BME280;39542;-34.932;138.594;2023-06-05T02:34:53;100707.50;;;18.66;62.16
53635;BME280;39542;-34.932;138.594;2023-06-05T02:35:28;100707.02;;;18.66;62.10
53635;BME280;39542;-34.932;138.594;2023-06-05T02:36:02;100707.64;;;18.68;62.09
53635;BME280;39542;-34.932;138.594;2023-06-05T02:36:36;100705.48;;;18.66;62.18
53635;BME280;39542;-34.932;138.594;2023-06-05T02:37:10;100704.15;;;18.67;62.10
53635;BME280;39542;-34.932;138.594;2023-06-05T02:37:44;100705.23;;;18.69;62.08
53635;BME280;39542;-34.932;138.594;2023-06-05T02:38:19;100704.74;;;18.70;62.08
53635;BME280;39542;-34.932;138.594;2023-06-05T02:38:53;100706.74;;;18.69;62.01
53635;BME280;39542;-34.932;138.594;2023-06-05T02:39:28;100706.24;;;18.67;62.06
53635;BME280;39542;-34.932;138.594;2023-06-05T02:40:02;100704.82;;;18.66;62.26
53635;BME280;39542;-34.932;138.594;2023-06-05T02:40:36;100706.52;;;18.67;62.16
53635;BME280;39542;-34.932;138.594;2023-06-05T02:41:11;100706.74;;;18.67;62.10
53635;BME280;39542;-34.932;138.594;2023-06-05T02:41:45;100705.46;;;18.69;62.12
53635;BME280;39542;-34.932;138.594;2023-06-05T02:42:19;100712.69;;;18.69;62.15
53635;BME280;39542;-34.932;138.594;2023-06-05T02:42:54;100709.36;;;18.68;62.16
53635;BME280;39542;-34.932;138.594;2023-06-05T02:43:27;100708.43;;;18.68;62.16
53635;BME280;39542;-34.932;138.594;2023-06-05T02:44:02;100706.34;;;18.68;62.19
53635;BME280;39542;-34.932;138.594;2023-06-05T02:44:36;100707.42;;;18.67;62.35
53635;BME280;39542;-34.932;138.594;2023-06-05T02:45:10;100708.18;;;18.67;62.13
53635;BME280;39542;-34.932;138.594;2023-06-05T02:45:45;100706.18;;;18.67;62.23
53635;BME280;39542;-34.932;138.594;2023-06-05T02:46:19;100708.97;;;18.68;62.18
53635;BME280;39542;-34.932;138.594;2023-06-05T02:46:53;100705.33;;;18.69;62.12
53635;BME280;39542;-34.932;138.594;2023-06-05T02:47:27;100706.75;;;18.69;62.14
53635;BME280;39542;-34.932;138.594;2023-06-05T02:48:01;100707.19;;;18.68;62.27
53635;BME280;39542;-34.932;138.594;2023-06-05T02:48:36;100708.09;;;18.68;62.23
53635;BME280;39542;-34.932;138.594;2023-06-05T02:49:10;100702.51;;;18.68;62.16
53635;BME280;39542;-34.932;138.594;2023-06-05T02:49:44;100703.16;;;18.68;62.24
53635;BME280;39542;-34.932;138.594;2023-06-05T02:50:19;100702.51;;;18.69;62.12
53635;BME280;39542;-34.932;138.594;2023-06-05T02:50:53;100703.61;;;18.69;62.29
53635;BME280;39542;-34.932;138.594;2023-06-05T02:51:27;100705.20;;;18.69;62.20
53635;BME280;39542;-34.932;138.594;2023-06-05T02:52:01;100705.98;;;18.69;62.24
53635;BME280;39542;-34.932;138.594;2023-06-05T02:52:36;100703.78;;;18.68;62.20
53635;BME280;39542;-34.932;138.594;2023-06-05T02:53:10;100705.77;;;18.70;62.23
53635;BME280;39542;-34.932;138.594;2023-06-05T02:53:44;100705.52;;;18.71;62.19
53635;BME280;39542;-34.932;138.594;2023-06-05T02:54:19;100706.16;;;18.69;62.25
53635;BME280;39542;-34.932;138.594;2023-06-05T02:54:53;100703.12;;;18.69;62.33